Time,TemperatureF,DewpointF,PressureIn,WindDirection,WindDirectionDegrees,WindSpeedMPH,WindSpeedGustMPH,Humidity,HourlyPrecipIn,Conditions,Clouds,dailyrainin,SolarRadiationWatts/m^2,SoftwareType,DateUTC
2013-12-01 00:02:00,30.0,29.0,-100.00,NW,314,0.0,4.0,98,0.00,,,0.00,0.000000,,2013-12-01 05:02:00,
2013-12-01 00:12:00,30.0,29.0,-100.00,NW,314,0.0,4.0,98,0.00,,,0.00,0.000000,,2013-12-01 05:12:00,
2013-12-01 00:43:00,30.0,29.0,-100.00,WNW,295,2.0,4.0,98,0.00,,,0.00,0.000000,,2013-12-01 05:43:00,
2013-12-01 00:53:00,30.0,29.0,-100.00,WNW,295,2.0,4.0,98,0.00,,,0.00,0.000000,,2013-12-01 05:53:00,
2013-12-01 01:02:00,30.0,29.0,-100.00,WNW,295,2.0,4.0,98,0.00,,,0.00,0.000000,,2013-12-01 06:02:00,
2013-12-01 01:12:00,30.0,29.0,-100.00,WNW,295,2.0,4.0,98,0.00,,,0.00,0.000000,,2013-12-01 06:12:00,
2013-12-01 01:42:00,30.0,29.0,-100.00,NW,313,1.0,6.0,98,0.00,,,0.00,0.000000,,2013-12-01 06:42:00,
2013-12-01 01:52:00,30.0,29.0,-100.00,NW,313,1.0,6.0,98,0.00,,,0.00,0.000000,,2013-12-01 06:52:00,
2013-12-01 02:01:00,30.0,29.0,-100.00,NW,313,1.0,6.0,98,0.00,,,0.00,0.000000,,2013-12-01 07:01:00,
2013-12-01 02:12:00,30.0,29.0,-100.00,NW,313,1.0,6.0,98,0.00,,,0.00,0.000000,,2013-12-01 07:12:00,
2013-12-01 02:42:00,29.0,29.0,-100.00,NW,318,0.0,5.0,98,0.00,,,0.00,0.000000,,2013-12-01 07:42:00,
2013-12-01 02:52:00,29.0,29.0,-100.00,NW,318,0.0,5.0,98,0.00,,,0.00,0.000000,,2013-12-01 07:52:00,
2013-12-01 03:02:00,29.0,29.0,-100.00,NW,318,0.0,5.0,98,0.00,,,0.00,0.000000,,2013-12-01 08:02:00,
2013-12-01 03:11:00,29.0,29.0,-100.00,NW,318,0.0,5.0,98,0.00,,,0.00,0.000000,,2013-12-01 08:11:00,
2013-12-01 03:43:00,30.0,29.0,-100.00,NNE,15,3.0,5.0,96,0.00,,,0.00,0.000000,,2013-12-01 08:43:00,
2013-12-01 03:52:00,30.0,29.0,-100.00,NNE,15,3.0,5.0,96,0.00,,,0.00,0.000000,,2013-12-01 08:52:00,
2013-12-01 04:02:00,30.0,29.0,-100.00,NNE,15,3.0,5.0,96,0.00,,,0.00,0.000000,,2013-12-01 09:02:00,
2013-12-01 04:11:00,30.0,29.0,-100.00,NNE,15,3.0,5.0,96,0.00,,,0.00,0.000000,,2013-12-01 09:11:00,
2013-12-01 04:43:00,30.0,27.0,-100.00,NNE,16,4.0,6.0,90,0.00,,,0.00,0.000000,,2013-12-01 09:43:00,
2013-12-01 04:54:00,30.0,27.0,-100.00,NNE,16,4.0,6.0,90,0.00,,,0.00,0.000000,,2013-12-01 09:54:00,
2013-12-01 05:03:00,30.0,27.0,-100.00,NNE,16,4.0,6.0,90,0.00,,,0.00,0.000000,,2013-12-01 10:03:00,
2013-12-01 05:12:00,30.0,27.0,-100.00,NNE,16,4.0,6.0,90,0.00,,,0.00,0.000000,,2013-12-01 10:12:00,
2013-12-01 05:43:00,30.0,27.0,-100.00,NE,36,3.0,6.0,89,0.00,,,0.00,0.000000,,2013-12-01 10:43:00,
2013-12-01 05:53:00,30.0,27.0,-100.00,NE,36,3.0,6.0,89,0.00,,,0.00,0.000000,,2013-12-01 10:53:00,
2013-12-01 06:02:00,30.0,27.0,-100.00,NE,36,3.0,6.0,89,0.00,,,0.00,0.000000,,2013-12-01 11:02:00,
2013-12-01 06:12:00,30.0,27.0,-100.00,NE,36,3.0,6.0,89,0.00,,,0.00,0.000000,,2013-12-01 11:12:00,
2013-12-01 06:42:00,29.0,26.0,-100.00,North,1,1.0,5.0,89,0.00,,,0.00,0.000000,,2013-12-01 11:42:00,
2013-12-01 06:52:00,29.0,26.0,-100.00,North,1,1.0,5.0,89,0.00,,,0.00,0.000000,,2013-12-01 11:52:00,
2013-12-01 07:02:00,29.0,26.0,-100.00,North,1,1.0,5.0,89,0.00,,,0.00,0.000000,,2013-12-01 12:02:00,
2013-12-01 07:12:00,29.0,26.0,-100.00,North,1,1.0,5.0,89,0.00,,,0.00,0.000000,,2013-12-01 12:12:00,
2013-12-01 07:42:00,29.0,26.0,-100.00,NE,35,4.0,6.0,88,0.00,,,0.00,0.000000,,2013-12-01 12:42:00,
2013-12-01 07:52:00,29.0,26.0,-100.00,NE,35,4.0,6.0,88,0.00,,,0.00,0.000000,,2013-12-01 12:52:00,
2013-12-01 08:01:00,29.0,26.0,-100.00,NE,35,4.0,6.0,88,0.00,,,0.00,0.000000,,2013-12-01 13:01:00,
2013-12-01 08:11:00,29.0,26.0,-100.00,NE,35,4.0,6.0,88,0.00,,,0.00,0.000000,,2013-12-01 13:11:00,
2013-12-01 08:42:00,28.0,25.0,-100.00,NE,47,3.0,5.0,89,0.00,,,0.00,0.000000,,2013-12-01 13:42:00,
2013-12-01 08:52:00,28.0,25.0,-100.00,NE,47,3.0,5.0,89,0.00,,,0.00,0.000000,,2013-12-01 13:52:00,
2013-12-01 09:02:00,28.0,25.0,-100.00,NE,47,3.0,5.0,89,0.00,,,0.00,0.000000,,2013-12-01 14:02:00,
2013-12-01 09:12:00,28.0,25.0,-100.00,NE,47,3.0,5.0,89,0.00,,,0.00,0.000000,,2013-12-01 14:12:00,
2013-12-01 09:42:00,29.0,25.0,-100.00,ENE,59,5.0,7.0,85,0.00,,,0.00,11.000000,,2013-12-01 14:42:00,
2013-12-01 09:52:00,29.0,25.0,-100.00,ENE,59,5.0,7.0,85,0.00,,,0.00,11.000000,,2013-12-01 14:52:00,
2013-12-01 10:02:00,29.0,25.0,-100.00,ENE,59,5.0,7.0,85,0.00,,,0.00,11.000000,,2013-12-01 15:02:00,
2013-12-01 10:11:00,29.0,25.0,-100.00,ENE,59,5.0,7.0,85,0.00,,,0.00,11.000000,,2013-12-01 15:11:00,
2013-12-01 10:43:00,29.0,25.0,-100.00,NE,38,2.0,7.0,84,0.00,,,0.00,38.000000,,2013-12-01 15:43:00,
2013-12-01 10:54:00,29.0,25.0,-100.00,NE,38,2.0,7.0,84,0.00,,,0.00,38.000000,,2013-12-01 15:54:00,
2013-12-01 11:03:00,29.0,25.0,-100.00,NE,38,2.0,7.0,84,0.00,,,0.00,38.000000,,2013-12-01 16:03:00,
2013-12-01 11:13:00,29.0,25.0,-100.00,NE,38,2.0,7.0,84,0.00,,,0.00,38.000000,,2013-12-01 16:13:00,
2013-12-01 11:43:00,29.0,23.0,-100.00,ENE,67,4.0,9.0,78,0.00,,,0.00,76.000000,,2013-12-01 16:43:00,
2013-12-01 11:52:00,29.0,23.0,-100.00,ENE,67,4.0,9.0,78,0.00,,,0.00,76.000000,,2013-12-01 16:52:00,
2013-12-01 12:02:00,29.0,23.0,-100.00,ENE,67,4.0,9.0,78,0.00,,,0.00,76.000000,,2013-12-01 17:02:00,
2013-12-01 12:12:00,29.0,23.0,-100.00,ENE,67,4.0,9.0,78,0.00,,,0.00,76.000000,,2013-12-01 17:12:00,
2013-12-01 12:42:00,30.0,23.0,-100.00,ENE,65,4.0,7.0,75,0.00,,,0.00,118.000000,,2013-12-01 17:42:00,
2013-12-01 12:52:00,30.0,23.0,-100.00,ENE,65,4.0,7.0,75,0.00,,,0.00,118.000000,,2013-12-01 17:52:00,
2013-12-01 13:02:00,30.0,23.0,-100.00,ENE,65,4.0,7.0,75,0.00,,,0.00,118.000000,,2013-12-01 18:02:00,
2013-12-01 13:12:00,30.0,23.0,-100.00,ENE,65,4.0,7.0,75,0.00,,,0.00,118.000000,,2013-12-01 18:12:00,
2013-12-01 13:42:00,30.0,22.0,-100.00,ENE,68,5.0,8.0,73,0.00,,,0.00,155.000000,,2013-12-01 18:42:00,
2013-12-01 13:52:00,30.0,22.0,-100.00,ENE,68,5.0,8.0,73,0.00,,,0.00,155.000000,,2013-12-01 18:52:00,
2013-12-01 14:02:00,30.0,22.0,-100.00,ENE,68,5.0,8.0,73,0.00,,,0.00,155.000000,,2013-12-01 19:02:00,
2013-12-01 14:11:00,30.0,22.0,-100.00,ENE,68,5.0,8.0,73,0.00,,,0.00,155.000000,,2013-12-01 19:11:00,
2013-12-01 14:42:00,30.0,23.0,-100.00,NE,47,4.0,7.0,74,0.00,,,0.00,147.000000,,2013-12-01 19:42:00,
2013-12-01 14:52:00,30.0,23.0,-100.00,NE,47,4.0,7.0,74,0.00,,,0.00,147.000000,,2013-12-01 19:52:00,
2013-12-01 15:01:00,30.0,23.0,-100.00,NE,47,4.0,7.0,74,0.00,,,0.00,147.000000,,2013-12-01 20:01:00,
2013-12-01 15:11:00,30.0,23.0,-100.00,NE,47,4.0,7.0,74,0.00,,,0.00,147.000000,,2013-12-01 20:11:00,
2013-12-01 15:42:00,30.0,23.0,-100.00,NNW,345,0.0,4.0,74,0.00,,,0.00,93.000000,,2013-12-01 20:42:00,
2013-12-01 15:52:00,30.0,23.0,-100.00,NNW,345,0.0,4.0,74,0.00,,,0.00,93.000000,,2013-12-01 20:52:00,
2013-12-01 16:02:00,30.0,23.0,-100.00,NNW,345,0.0,4.0,74,0.00,,,0.00,93.000000,,2013-12-01 21:02:00,
2013-12-01 16:12:00,30.0,23.0,-100.00,NNW,345,0.0,4.0,74,0.00,,,0.00,93.000000,,2013-12-01 21:12:00,
2013-12-01 16:43:00,28.0,23.0,-100.00,South,186,3.0,3.0,80,0.00,,,0.00,39.000000,,2013-12-01 21:43:00,
2013-12-01 16:53:00,28.0,23.0,-100.00,South,186,3.0,3.0,80,0.00,,,0.00,39.000000,,2013-12-01 21:53:00,
2013-12-01 17:03:00,28.0,23.0,-100.00,South,186,3.0,3.0,80,0.00,,,0.00,39.000000,,2013-12-01 22:03:00,
2013-12-01 17:13:00,28.0,23.0,-100.00,South,186,3.0,3.0,80,0.00,,,0.00,39.000000,,2013-12-01 22:13:00,
2013-12-01 17:43:00,27.0,23.0,-100.00,SSW,203,0.0,3.0,84,0.00,,,0.00,6.000000,,2013-12-01 22:43:00,
2013-12-01 17:53:00,27.0,23.0,-100.00,SSW,203,0.0,3.0,84,0.00,,,0.00,6.000000,,2013-12-01 22:53:00,
2013-12-01 18:02:00,27.0,23.0,-100.00,SSW,203,0.0,3.0,84,0.00,,,0.00,6.000000,,2013-12-01 23:02:00,
2013-12-01 18:12:00,27.0,23.0,-100.00,SSW,203,0.0,3.0,84,0.00,,,0.00,6.000000,,2013-12-01 23:12:00,
2013-12-01 18:42:00,26.0,23.0,-100.00,WNW,290,0.0,2.0,88,0.00,,,0.00,0.000000,,2013-12-01 23:42:00,
2013-12-01 18:52:00,26.0,23.0,-100.00,WNW,290,0.0,2.0,88,0.00,,,0.00,0.000000,,2013-12-01 23:52:00,
2013-12-01 19:02:00,26.0,23.0,-100.00,WNW,290,0.0,2.0,88,0.00,,,0.00,0.000000,,2013-12-02 00:02:00,
2013-12-01 19:11:00,26.0,23.0,-100.00,WNW,290,0.0,2.0,88,0.00,,,0.00,0.000000,,2013-12-02 00:11:00,
2013-12-01 19:42:00,26.0,23.0,-100.00,NNE,23,1.0,4.0,87,0.00,,,0.00,0.000000,,2013-12-02 00:42:00,
2013-12-01 19:52:00,26.0,23.0,-100.00,NNE,23,1.0,4.0,87,0.00,,,0.00,0.000000,,2013-12-02 00:52:00,
2013-12-01 20:02:00,26.0,23.0,-100.00,NNE,23,1.0,4.0,87,0.00,,,0.00,0.000000,,2013-12-02 01:02:00,
2013-12-01 20:11:00,26.0,23.0,-100.00,NNE,23,1.0,4.0,87,0.00,,,0.00,0.000000,,2013-12-02 01:11:00,
2013-12-01 20:42:00,26.0,21.0,-100.00,East,101,4.0,6.0,82,0.00,,,0.00,0.000000,,2013-12-02 01:42:00,
2013-12-01 20:52:00,26.0,21.0,-100.00,East,101,4.0,6.0,82,0.00,,,0.00,0.000000,,2013-12-02 01:52:00,
2013-12-01 21:01:00,26.0,21.0,-100.00,East,101,4.0,6.0,82,0.00,,,0.00,0.000000,,2013-12-02 02:01:00,
2013-12-01 21:11:00,26.0,21.0,-100.00,East,101,4.0,6.0,82,0.00,,,0.00,0.000000,,2013-12-02 02:11:00,
2013-12-01 21:42:00,26.0,21.0,-100.00,North,6,2.0,6.0,82,0.00,,,0.00,0.000000,,2013-12-02 02:42:00,
2013-12-01 21:52:00,26.0,21.0,-100.00,North,6,2.0,6.0,82,0.00,,,0.00,0.000000,,2013-12-02 02:52:00,
2013-12-01 22:02:00,26.0,21.0,-100.00,North,6,2.0,6.0,82,0.00,,,0.00,0.000000,,2013-12-02 03:02:00,
2013-12-01 22:11:00,26.0,21.0,-100.00,North,6,2.0,6.0,82,0.00,,,0.00,0.000000,,2013-12-02 03:11:00,
2013-12-01 22:43:00,25.0,21.0,-100.00,South,189,1.0,4.0,84,0.00,,,0.00,0.000000,,2013-12-02 03:43:00,
2013-12-01 22:54:00,25.0,21.0,-100.00,South,189,1.0,4.0,84,0.00,,,0.00,0.000000,,2013-12-02 03:54:00,
2013-12-01 23:03:00,25.0,21.0,-100.00,South,189,1.0,4.0,84,0.00,,,0.00,0.000000,,2013-12-02 04:03:00,
2013-12-01 23:13:00,25.0,21.0,-100.00,South,189,1.0,4.0,84,0.00,,,0.00,0.000000,,2013-12-02 04:13:00,
2013-12-01 23:43:00,24.0,20.0,-100.00,NE,39,3.0,5.0,83,0.00,,,0.00,0.000000,,2013-12-02 04:43:00,
2013-12-01 23:53:00,24.0,20.0,-100.00,NE,39,3.0,5.0,83,0.00,,,0.00,0.000000,,2013-12-02 04:53:00,